createdAt,value
2018-12-18T00:01:51.875Z,24.02
2018-12-18T00:09:24.758Z,17.52
2018-12-18T00:11:59.443Z,18.35
2018-12-18T00:17:02.391Z,23.20
2018-12-18T00:22:15.775Z,24.77
2018-12-18T00:24:44.869Z,20.68
2018-12-18T00:29:47.642Z,12.85
2018-12-18T00:32:18.861Z,20.17
2018-12-18T00:34:50.320Z,15.35
2018-12-18T00:37:23.728Z,20.55
2018-12-18T00:39:51.424Z,15.85
2018-12-18T00:44:58.994Z,14.15
2018-12-18T00:47:27.463Z,15.53
2018-12-18T00:49:56.541Z,19.02
2018-12-18T00:52:27.418Z,12.78
2018-12-18T00:54:57.924Z,12.35
2018-12-18T00:57:30.920Z,11.63
2018-12-18T00:59:59.254Z,16.93
2018-12-18T01:02:26.750Z,24.92
2018-12-18T01:04:54.057Z,15.58
2018-12-18T01:07:23.333Z,14.65
2018-12-18T01:09:51.059Z,15.93
2018-12-18T01:17:23.723Z,21.57
2018-12-18T01:19:52.074Z,25.70
2018-12-18T01:29:56.459Z,26.55
2018-12-18T01:32:29.021Z,21.90
2018-12-18T01:40:04.475Z,19.30
2018-12-18T01:42:32.155Z,16.00
2018-12-18T01:45:00.454Z,23.15
2018-12-18T01:47:33.658Z,12.45
2018-12-18T01:50:00.810Z,18.35
2018-12-18T01:52:30.116Z,16.05
2018-12-18T01:54:57.621Z,18.50
2018-12-18T01:57:25.204Z,16.52
2018-12-18T01:59:52.367Z,18.55
2018-12-18T02:04:54.455Z,14.80
2018-12-18T02:09:56.058Z,16.87
2018-12-18T02:12:24.369Z,18.52
2018-12-18T02:14:51.840Z,19.50
2018-12-18T02:33:48.713Z,24.65
2018-12-18T02:36:23.251Z,18.80
2018-12-18T02:38:51.180Z,17.52
2018-12-18T02:41:23.421Z,16.42
2018-12-18T03:05:25.379Z,23.62
2018-12-18T03:10:29.482Z,16.45
2018-12-18T03:26:59.386Z,19.62
2018-12-18T03:29:26.759Z,15.43
2018-12-18T03:39:39.738Z,19.17
2018-12-18T03:42:08.176Z,21.30
2018-12-18T03:44:36.859Z,21.05
2018-12-18T03:52:09.440Z,14.58
2018-12-18T04:10:03.014Z,15.28
2018-12-18T04:12:31.375Z,20.37
2018-12-18T04:14:58.908Z,20.85
2018-12-18T04:17:29.458Z,17.65
2018-12-18T04:33:04.799Z,15.40
2018-12-18T04:35:33.183Z,13.78
2018-12-18T04:38:07.700Z,20.70
2018-12-18T04:54:30.072Z,17.50
2018-12-18T04:56:57.532Z,20.10
2018-12-18T04:59:30.697Z,21.48
2018-12-18T05:01:59.279Z,20.80
2018-12-18T05:09:39.218Z,19.52
2018-12-18T05:37:39.976Z,12.75
2018-12-18T05:42:46.551Z,21.68
2018-12-18T05:45:19.101Z,17.85
2018-12-18T05:52:56.710Z,19.62
2018-12-18T06:14:49.620Z,20.30
2018-12-18T06:17:17.423Z,22.15
2018-12-18T06:19:46.900Z,20.17
2018-12-18T06:22:14.189Z,21.33
2018-12-18T06:24:44.648Z,15.25
2018-12-18T06:29:49.749Z,25.90
2018-12-18T06:32:22.623Z,17.85
2018-12-18T06:34:51.328Z,18.17
2018-12-18T06:39:51.195Z,16.93
2018-12-18T06:42:18.239Z,15.28
2018-12-18T07:00:58.999Z,23.32
2018-12-18T08:01:51.778Z,21.17
2018-12-18T08:09:24.679Z,21.68
2018-12-18T08:11:53.795Z,20.32
2018-12-18T08:28:17.637Z,20.97
2018-12-18T08:30:45.277Z,23.98
2018-12-18T08:33:12.527Z,23.07
2018-12-18T08:35:41.828Z,23.62
2018-12-18T08:40:49.270Z,26.55
2018-12-18T08:43:16.634Z,26.35
2018-12-18T08:45:43.952Z,24.72
2018-12-18T08:48:11.143Z,24.07
2018-12-18T08:50:38.443Z,26.95
2018-12-18T08:53:06.107Z,22.95
2018-12-18T08:55:33.198Z,23.55
2018-12-18T08:58:00.068Z,17.20
2018-12-18T09:00:27.024Z,21.52
2018-12-18T09:02:53.886Z,18.42
2018-12-18T09:05:20.858Z,27.00
2018-12-18T09:07:47.611Z,29.65
2018-12-18T09:10:14.477Z,27.95
2018-12-18T09:12:41.250Z,20.10
2018-12-18T09:15:08.116Z,26.80
2018-12-18T09:17:34.962Z,22.13
2018-12-18T09:20:01.847Z,22.85
2018-12-18T09:22:29.217Z,23.55
2018-12-18T09:24:56.179Z,24.52
2018-12-18T09:27:23.055Z,24.92
2018-12-18T09:29:49.905Z,18.87
2018-12-18T09:32:16.673Z,24.60
2018-12-18T09:34:43.535Z,24.95
2018-12-18T09:37:10.398Z,21.95
2018-12-18T09:39:37.260Z,21.33
2018-12-18T09:42:04.064Z,24.23
2018-12-18T09:44:31.002Z,27.70
2018-12-18T09:46:57.861Z,28.70
2018-12-18T09:49:24.820Z,22.52
2018-12-18T09:51:52.619Z,28.23
2018-12-18T09:54:19.484Z,27.35
2018-12-18T09:56:46.452Z,23.92
2018-12-18T09:59:14.429Z,24.23
2018-12-18T10:01:41.299Z,31.80
2018-12-18T10:04:08.072Z,25.17
2018-12-18T10:06:36.457Z,27.75
2018-12-18T10:09:09.447Z,23.73
2018-12-18T10:11:32.438Z,23.22
2018-12-18T10:13:59.316Z,26.50
2018-12-18T10:16:26.280Z,29.85
2018-12-18T10:18:53.143Z,25.43
2018-12-18T10:21:20.018Z,23.47
2018-12-18T10:23:46.764Z,21.75
2018-12-18T10:26:13.627Z,24.92
2018-12-18T10:28:40.287Z,26.27
2018-12-18T10:31:07.155Z,25.17
2018-12-18T10:33:34.028Z,29.63
2018-12-18T10:36:03.085Z,24.77
2018-12-18T10:38:29.999Z,19.05
2018-12-18T10:40:56.888Z,29.57
2018-12-18T10:43:23.841Z,27.80
2018-12-18T10:45:51.220Z,28.00
2018-12-18T10:48:18.361Z,21.12
2018-12-18T10:50:45.849Z,22.15
2018-12-18T10:53:13.255Z,29.10
2018-12-18T10:55:40.862Z,23.55
2018-12-18T10:58:08.442Z,26.37
2018-12-18T11:00:36.234Z,29.75
2018-12-18T11:03:04.058Z,28.12
2018-12-18T11:05:33.819Z,27.87
2018-12-18T11:08:02.802Z,26.37
2018-12-18T11:10:32.642Z,28.05
2018-12-18T11:13:00.228Z,26.15
2018-12-18T11:15:27.500Z,31.42
2018-12-18T11:17:57.759Z,23.80
2018-12-18T11:20:25.565Z,25.27
2018-12-18T11:22:53.330Z,28.95
2018-12-18T11:25:21.269Z,25.52
2018-12-18T11:27:48.486Z,36.73
2018-12-18T11:30:15.857Z,31.57
2018-12-18T11:32:43.271Z,34.18
2018-12-18T11:35:10.607Z,26.27
2018-12-18T11:37:38.453Z,29.12
2018-12-18T11:40:05.245Z,31.52
2018-12-18T11:42:32.078Z,28.02
2018-12-18T11:44:59.419Z,29.20
2018-12-18T11:47:26.535Z,31.37
2018-12-18T11:49:53.321Z,32.03
2018-12-18T11:52:21.102Z,31.70
2018-12-18T11:54:47.959Z,32.70
2018-12-18T11:57:14.845Z,29.57
2018-12-18T11:59:41.695Z,32.45
2018-12-18T12:02:08.490Z,29.63
2018-12-18T12:04:35.269Z,34.10
2018-12-18T12:07:02.595Z,31.40
2018-12-18T12:09:29.466Z,34.48
2018-12-18T12:11:56.398Z,32.90
2018-12-18T12:14:23.870Z,32.75
2018-12-18T12:16:51.336Z,29.23
2018-12-18T12:19:18.762Z,40.58
2018-12-18T12:21:45.943Z,39.55
2018-12-18T12:24:13.145Z,35.88
2018-12-18T12:26:40.165Z,32.75
2018-12-18T12:29:07.363Z,29.63
2018-12-18T12:31:34.778Z,31.10
2018-12-18T12:34:01.985Z,29.85
2018-12-18T12:36:31.263Z,34.13
2018-12-18T12:38:59.113Z,31.10
2018-12-18T12:41:25.926Z,29.02
2018-12-18T12:43:53.262Z,34.05
2018-12-18T12:46:20.215Z,31.48
2018-12-18T12:48:47.503Z,33.23
2018-12-18T12:51:14.620Z,35.48
2018-12-18T12:53:41.714Z,30.35
2018-12-18T12:56:09.503Z,27.37
2018-12-18T12:58:36.475Z,24.40
2018-12-18T13:01:04.129Z,26.40
2018-12-18T13:03:31.534Z,25.72
2018-12-18T13:05:58.698Z,16.30
2018-12-18T13:08:26.774Z,21.17
2018-12-18T13:10:54.944Z,21.82
2018-12-18T13:13:21.790Z,22.95
2018-12-18T13:15:48.818Z,26.33
2018-12-18T13:18:15.889Z,21.60
2018-12-18T13:20:43.051Z,19.77
2018-12-18T13:23:10.147Z,21.97
2018-12-18T13:25:38.573Z,23.40
2018-12-18T13:28:05.952Z,18.62
2018-12-18T13:30:33.080Z,19.23
2018-12-18T13:33:01.692Z,25.08
2018-12-18T13:35:29.098Z,18.62
2018-12-18T13:37:56.636Z,24.65
2018-12-18T13:40:23.715Z,18.75
2018-12-18T13:42:50.676Z,19.20
2018-12-18T13:45:17.796Z,20.82
2018-12-18T13:47:46.791Z,17.80
2018-12-18T13:50:14.149Z,18.60
2018-12-18T13:52:41.709Z,19.40
2018-12-18T13:55:08.782Z,20.75
2018-12-18T13:57:35.883Z,23.85
2018-12-18T14:00:03.242Z,26.77
2018-12-18T14:02:30.842Z,16.52
2018-12-18T14:04:58.518Z,21.12
2018-12-18T14:07:26.393Z,22.00
2018-12-18T14:09:53.455Z,17.90
2018-12-18T14:12:23.801Z,21.48
2018-12-18T14:14:51.053Z,17.52
2018-12-18T14:17:19.104Z,23.25
2018-12-18T14:19:46.675Z,19.25
2018-12-18T14:22:14.921Z,24.23
2018-12-18T14:27:15.182Z,23.70
2018-12-18T14:29:42.354Z,24.52
2018-12-18T14:32:09.335Z,24.40
2018-12-18T14:34:36.545Z,19.95
2018-12-18T14:37:11.165Z,16.50
2018-12-18T14:39:38.473Z,18.27
2018-12-18T14:42:07.742Z,29.40
2018-12-18T14:44:35.739Z,19.42
2018-12-18T14:47:05.090Z,20.35
2018-12-18T14:49:33.039Z,19.17
2018-12-18T14:52:07.096Z,21.35
2018-12-18T14:54:34.856Z,17.40
2018-12-18T14:57:02.573Z,24.65
2018-12-18T14:59:31.179Z,17.40
2018-12-18T15:01:59.036Z,19.25
2018-12-18T15:04:27.335Z,17.77
2018-12-18T15:06:55.116Z,21.55
2018-12-18T15:09:24.027Z,20.05
2018-12-18T15:11:51.403Z,23.52
2018-12-18T15:14:18.807Z,20.75
2018-12-18T15:16:46.461Z,19.75
2018-12-18T15:19:13.774Z,23.80
2018-12-18T15:21:41.762Z,29.65
2018-12-18T15:24:09.544Z,24.85
2018-12-18T15:26:37.419Z,28.45
2018-12-18T15:29:04.365Z,26.97
2018-12-18T15:31:31.334Z,26.33
2018-12-18T15:33:58.201Z,25.60
2018-12-18T15:36:24.960Z,26.02
2018-12-18T15:38:51.931Z,27.15
2018-12-18T15:41:18.704Z,20.48
2018-12-18T15:43:45.665Z,20.05
2018-12-18T15:46:12.625Z,24.98
2018-12-18T15:48:39.596Z,22.45
2018-12-18T15:51:06.349Z,26.57
2018-12-18T15:53:33.227Z,25.55
2018-12-18T15:55:59.883Z,27.02
2018-12-18T15:58:26.747Z,28.47
2018-12-18T16:00:53.508Z,22.10
2018-12-18T16:03:20.370Z,20.77
2018-12-18T16:05:47.344Z,22.02
2018-12-18T16:08:14.415Z,20.92
2018-12-18T16:10:41.266Z,22.20
2018-12-18T16:13:08.135Z,21.80
2018-12-18T16:15:34.902Z,22.40
2018-12-18T16:18:01.877Z,27.32
2018-12-18T16:20:28.843Z,25.80
2018-12-18T16:22:55.706Z,26.65
2018-12-18T16:25:22.544Z,21.50
2018-12-18T16:27:49.437Z,24.57
2018-12-18T16:30:16.310Z,21.60
2018-12-18T16:32:43.162Z,31.35
2018-12-18T16:35:10.026Z,29.98
2018-12-18T16:37:36.887Z,34.70
2018-12-18T16:40:03.660Z,29.42
2018-12-18T16:42:30.523Z,25.82
2018-12-18T16:44:57.279Z,23.40
2018-12-18T16:47:24.137Z,28.50
2018-12-18T16:49:51.000Z,31.80
2018-12-18T16:52:17.872Z,26.52
2018-12-18T16:54:44.844Z,31.25
2018-12-18T16:57:13.357Z,24.60
2018-12-18T16:59:40.418Z,21.90
2018-12-18T17:02:07.278Z,27.17
2018-12-18T17:04:34.140Z,22.50
2018-12-18T17:07:00.899Z,28.65
2018-12-18T17:09:27.672Z,25.88
2018-12-18T17:11:54.419Z,27.17
2018-12-18T17:14:21.296Z,21.48
2018-12-18T17:16:48.151Z,26.52
2018-12-18T17:19:15.118Z,26.23
2018-12-18T17:21:41.782Z,30.37
2018-12-18T17:24:08.656Z,28.62
2018-12-18T17:26:35.417Z,27.27
2018-12-18T17:29:02.271Z,33.95
2018-12-18T17:31:29.032Z,27.42
2018-12-18T17:33:55.813Z,28.38
2018-12-18T17:36:22.573Z,29.15
2018-12-18T17:38:49.334Z,24.12
2018-12-18T17:41:16.095Z,23.62
2018-12-18T17:43:43.473Z,35.35
2018-12-18T17:46:10.133Z,31.62
2018-12-18T17:48:36.993Z,27.90
2018-12-18T17:51:03.863Z,32.45
2018-12-18T17:53:30.723Z,35.68
2018-12-18T17:55:57.485Z,27.10
2018-12-18T17:58:24.363Z,24.92
2018-12-18T18:00:51.321Z,26.85
2018-12-18T18:03:18.092Z,27.77
2018-12-18T18:05:45.019Z,31.85
2018-12-18T18:08:12.144Z,24.40
2018-12-18T18:10:39.400Z,26.33
2018-12-18T18:13:09.643Z,25.37
2018-12-18T18:15:37.240Z,26.77
2018-12-18T18:18:06.542Z,22.58
2018-12-18T18:20:35.358Z,27.27
2018-12-18T18:23:03.044Z,28.12
2018-12-18T18:28:02.802Z,24.30
2018-12-18T18:30:30.767Z,25.40
2018-12-18T18:32:58.771Z,28.83
2018-12-18T18:35:27.360Z,30.23
2018-12-18T18:37:55.295Z,32.55
2018-12-18T18:40:23.395Z,29.67
2018-12-18T18:53:03.575Z,38.60
2018-12-18T18:55:31.665Z,36.05
2018-12-18T18:57:59.730Z,33.10
2018-12-18T19:00:30.207Z,29.07
2018-12-18T19:03:01.121Z,27.82
2018-12-18T19:05:28.447Z,30.30
2018-12-18T19:07:57.982Z,27.65
2018-12-18T19:10:25.388Z,27.22
2018-12-18T19:12:52.598Z,35.30
2018-12-18T19:15:20.459Z,30.75
2018-12-18T19:22:55.012Z,30.43
2018-12-18T19:25:24.685Z,30.85
2018-12-18T19:27:52.528Z,28.80
2018-12-18T19:30:21.439Z,29.67
2018-12-18T20:06:28.835Z,26.60
2018-12-18T20:08:58.840Z,30.48
2018-12-18T20:11:26.616Z,23.10
2018-12-18T20:13:54.363Z,30.52
2018-12-18T20:16:24.110Z,27.58
2018-12-18T20:23:59.766Z,27.13
2018-12-18T20:26:31.028Z,28.27
2018-12-18T20:31:34.071Z,21.97
2018-12-18T20:34:04.302Z,28.62
2018-12-18T20:39:14.838Z,23.52
2018-12-18T20:44:16.182Z,24.43
2018-12-18T20:46:44.854Z,26.25
2018-12-18T20:49:15.666Z,22.30
2018-12-18T20:54:17.645Z,22.73
2018-12-18T20:56:45.665Z,24.02
2018-12-18T20:59:14.431Z,22.48
2018-12-18T21:01:41.961Z,20.65
2018-12-18T21:19:25.459Z,19.45
2018-12-18T21:21:53.323Z,22.42
2018-12-18T21:29:28.699Z,20.72
2018-12-18T22:02:27.890Z,23.15
2018-12-18T22:04:55.590Z,24.95
2018-12-18T22:07:22.952Z,22.87
2018-12-18T22:12:25.296Z,26.05
2018-12-18T22:32:45.799Z,23.35
2018-12-18T22:35:14.719Z,20.90
2018-12-18T22:37:43.399Z,22.85
2018-12-18T22:42:46.059Z,19.27
2018-12-18T22:45:13.804Z,25.08
2018-12-18T22:47:42.857Z,29.82
2018-12-18T22:50:10.780Z,24.12
2018-12-18T22:52:43.311Z,29.60
2018-12-18T22:55:11.835Z,28.17
2018-12-18T23:02:44.503Z,29.95
2018-12-18T23:05:12.583Z,23.22
2018-12-18T23:07:42.185Z,24.85
2018-12-18T23:12:44.955Z,31.23
2018-12-18T23:15:12.756Z,26.52
2018-12-18T23:17:44.336Z,26.95
2018-12-18T23:44:44.183Z,24.20
2018-12-18T23:47:13.286Z,24.82
2018-12-18T23:49:43.512Z,21.70
2018-12-18T23:52:11.158Z,24.85
2018-12-18T23:54:38.190Z,15.48
2018-12-18T23:57:09.755Z,17.10
2018-12-18T23:59:37.589Z,21.80
